Gener8 Hector — D5JF3 — position and weather

sailwx.info

Track history (hours):
 
Tides and Currents Weather Stations Pressure Air Temp Water Temp Dewpoint Dewpoint Depression Visibility Wind Speed Wind Dir Waves Ship Positions

Gener8 Hector

Last reported at 2018-Feb-23 11:12 UTC. Time now 2018-Feb-24 09:54 UTC.
Position N 25°06' E 122°35'.

Length 333 m; draft 19.5 m.

Type: Tanker. MMSI: 636017082.

Date/timePositionNaut miles runAvg speedWind from/ knotsBaromVisibWave heightAir tempDewpointWater temp
2018-Feb-23 11:12N 25°06' E 122°35'312.8
2018-Feb-23 11:00N 25°04' E 122°34'612.7
2018-Feb-23 10:30N 24°58' E 122°32'612.7
2018-Feb-23 10:00N 24°51' E 122°30'612.8
2018-Feb-23 09:30N 24°45' E 122°28'612.8
2018-Feb-23 09:00N 24°39' E 122°26'612.7
2018-Feb-23 08:30N 24°33' E 122°24'612.6
2018-Feb-23 08:00N 24°27' E 122°22'612.7
2018-Feb-23 07:30N 24°21' E 122°21'612.6
2018-Feb-23 07:00N 24°15' E 122°19'612.4
2018-Feb-23 06:30N 24°09' E 122°17'612.4
2018-Feb-23 05:59N 24°03' E 122°15'1212.8
2018-Feb-23 05:04N 23°51' E 122°11'212.7
2018-Feb-23 04:54N 23°49' E 122°11'8711.3
2018-Feb-22 21:10N 22°26' E 121°41'412.2
2018-Feb-22 20:50N 22°24' E 121°38'1312.4
2018-Feb-22 19:49N 22°15' E 121°27'411.9
2018-Feb-22 19:30N 22°13' E 121°25'611.4
2018-Feb-22 18:57N 22°08' E 121°20'511.1
2018-Feb-22 18:30N 22°04' E 121°17'610.4
2018-Feb-22 17:57N 21°60' E 121°13'  
2018-Feb-17 02:57N 01°15' E 104°07'511.8
2018-Feb-17 02:30N 01°15' E 104°02'510.6
2018-Feb-17 02:00N 01°13' E 103°56'4 8.2
2018-Feb-17 01:30N 01°12' E 103°53'3 6.0
2018-Feb-17 01:00N 01°11' E 103°50'3 5.8
2018-Feb-17 00:30N 01°10' E 103°47'3 5.0
2018-Feb-17 00:00N 01°08' E 103°45'3 4.6
2018-Feb-16 23:27N 01°06' E 103°44'2 5.3
2018-Feb-16 22:59N 01°05' E 103°42'3 6.9
2018-Feb-16 22:30N 01°03' E 103°39'4 7.1
2018-Feb-16 21:59N 01°05' E 103°35'3 5.8
2018-Feb-16 21:30N 01°07' E 103°33'2 4.2
2018-Feb-16 20:59N 01°08' E 103°31'2 4.5
2018-Feb-16 20:30N 01°09' E 103°29'3 5.3
2018-Feb-16 19:59N 01°10' E 103°27'4 7.3
2018-Feb-16 19:28N 01°12' E 103°24'3 5.7
2018-Feb-16 18:59N 01°14' E 103°21'3 5.3
2018-Feb-16 18:30N 01°16' E 103°20'  
Track history (hours):
 
Tides and Currents Weather Stations Pressure Air Temp Water Temp Dewpoint Dewpoint Depression Visibility Wind Speed Wind Dir Waves Ship Positions

Gener8 Hector

Last reported at 2018-Feb-23 11:12 UTC. Time now 2018-Feb-24 09:54 UTC.
Position N 25°06' E 122°35'.

Length 333 m; draft 19.5 m.

Type: Tanker. MMSI: 636017082.

Date/timePositionNaut miles runAvg speedWind from/ knotsBaromVisibWave heightAir tempDewpointWater temp
2018-Feb-23 11:12N 25°06' E 122°35'312.8
2018-Feb-23 11:00N 25°04' E 122°34'612.7
2018-Feb-23 10:30N 24°58' E 122°32'612.7
2018-Feb-23 10:00N 24°51' E 122°30'612.8
2018-Feb-23 09:30N 24°45' E 122°28'612.8
2018-Feb-23 09:00N 24°39' E 122°26'612.7
2018-Feb-23 08:30N 24°33' E 122°24'612.6
2018-Feb-23 08:00N 24°27' E 122°22'612.7
2018-Feb-23 07:30N 24°21' E 122°21'612.6
2018-Feb-23 07:00N 24°15' E 122°19'612.4
2018-Feb-23 06:30N 24°09' E 122°17'612.4
2018-Feb-23 05:59N 24°03' E 122°15'1212.8
2018-Feb-23 05:04N 23°51' E 122°11'212.7
2018-Feb-23 04:54N 23°49' E 122°11'8711.3
2018-Feb-22 21:10N 22°26' E 121°41'412.2
2018-Feb-22 20:50N 22°24' E 121°38'1312.4
2018-Feb-22 19:49N 22°15' E 121°27'411.9
2018-Feb-22 19:30N 22°13' E 121°25'611.4
2018-Feb-22 18:57N 22°08' E 121°20'511.1
2018-Feb-22 18:30N 22°04' E 121°17'610.4
2018-Feb-22 17:57N 21°60' E 121°13'  
2018-Feb-17 02:57N 01°15' E 104°07'511.8
2018-Feb-17 02:30N 01°15' E 104°02'510.6
2018-Feb-17 02:00N 01°13' E 103°56'4 8.2
2018-Feb-17 01:30N 01°12' E 103°53'3 6.0
2018-Feb-17 01:00N 01°11' E 103°50'3 5.8
2018-Feb-17 00:30N 01°10' E 103°47'3 5.0
2018-Feb-17 00:00N 01°08' E 103°45'3 4.6
2018-Feb-16 23:27N 01°06' E 103°44'2 5.3
2018-Feb-16 22:59N 01°05' E 103°42'3 6.9
2018-Feb-16 22:30N 01°03' E 103°39'4 7.1
2018-Feb-16 21:59N 01°05' E 103°35'3 5.8
2018-Feb-16 21:30N 01°07' E 103°33'2 4.2
2018-Feb-16 20:59N 01°08' E 103°31'2 4.5
2018-Feb-16 20:30N 01°09' E 103°29'3 5.3
2018-Feb-16 19:59N 01°10' E 103°27'4 7.3
2018-Feb-16 19:28N 01°12' E 103°24'3 5.7
2018-Feb-16 18:59N 01°14' E 103°21'3 5.3
2018-Feb-16 18:30N 01°16' E 103°20'  

Dump ship's entire track history